sensor_id;sensor_type;location;lat;lon;timestamp;P1;durP1;ratioP1;P2;durP2;ratioP2
51066;SDS011;37112;45.892;-123.962;2023-08-21T00:00:16;61.60;;;17.20;;
51066;SDS011;37112;45.892;-123.962;2023-08-21T00:02:45;91.80;;;22.20;;
51066;SDS011;37112;45.892;-123.962;2023-08-21T00:04:55;75.50;;;17.80;;
51066;SDS011;37112;45.892;-123.962;2023-08-21T00:07:05;76.40;;;20.10;;
51066;SDS011;37112;45.892;-123.962;2023-08-21T00:09:16;47.80;;;14.60;;
51066;SDS011;37112;45.892;-123.962;2023-08-21T00:11:26;64.00;;;16.70;;
51066;SDS011;37112;45.892;-123.962;2023-08-21T00:13:35;70.30;;;17.70;;
51066;SDS011;37112;45.892;-123.962;2023-08-21T00:15:45;48.10;;;14.40;;
51066;SDS011;37112;45.892;-123.962;2023-08-21T00:17:55;40.40;;;13.20;;
51066;SDS011;37112;45.892;-123.962;2023-08-21T00:20:07;54.30;;;17.10;;
51066;SDS011;37112;45.892;-123.962;2023-08-21T00:22:17;57.40;;;14.90;;
51066;SDS011;37112;45.892;-123.962;2023-08-21T00:24:27;59.00;;;16.90;;
51066;SDS011;37112;45.892;-123.962;2023-08-21T00:26:37;41.30;;;14.20;;
51066;SDS011;37112;45.892;-123.962;2023-08-21T00:28:46;38.80;;;13.40;;
51066;SDS011;37112;45.892;-123.962;2023-08-21T00:31:01;54.70;;;15.40;;
51066;SDS011;37112;45.892;-123.962;2023-08-21T00:33:11;42.70;;;14.90;;
51066;SDS011;37112;45.892;-123.962;2023-08-21T00:35:21;39.70;;;13.20;;
51066;SDS011;37112;45.892;-123.962;2023-08-21T00:37:31;32.20;;;12.20;;
51066;SDS011;37112;45.892;-123.962;2023-08-21T00:39:40;39.90;;;12.50;;
51066;SDS011;37112;45.892;-123.962;2023-08-21T00:41:50;34.30;;;10.90;;
51066;SDS011;37112;45.892;-123.962;2023-08-21T00:44:00;28.80;;;10.40;;
51066;SDS011;37112;45.892;-123.962;2023-08-21T00:46:10;29.90;;;10.10;;
51066;SDS011;37112;45.892;-123.962;2023-08-21T00:48:20;33.60;;;9.90;;
51066;SDS011;37112;45.892;-123.962;2023-08-21T00:50:31;30.30;;;9.00;;
51066;SDS011;37112;45.892;-123.962;2023-08-21T00:52:41;21.90;;;8.10;;
51066;SDS011;37112;45.892;-123.962;2023-08-21T00:54:52;42.70;;;10.10;;
51066;SDS011;37112;45.892;-123.962;2023-08-21T00:57:03;47.90;;;9.70;;
51066;SDS011;37112;45.892;-123.962;2023-08-21T00:59:13;35.50;;;9.30;;
51066;SDS011;37112;45.892;-123.962;2023-08-21T01:01:23;30.20;;;8.50;;
51066;SDS011;37112;45.892;-123.962;2023-08-21T01:03:33;23.80;;;8.70;;
51066;SDS011;37112;45.892;-123.962;2023-08-21T01:05:43;21.60;;;7.70;;
51066;SDS011;37112;45.892;-123.962;2023-08-21T01:07:53;26.60;;;8.50;;
51066;SDS011;37112;45.892;-123.962;2023-08-21T01:10:09;24.40;;;7.10;;
51066;SDS011;37112;45.892;-123.962;2023-08-21T01:12:24;26.00;;;8.80;;
51066;SDS011;37112;45.892;-123.962;2023-08-21T01:14:43;20.40;;;6.90;;
51066;SDS011;37112;45.892;-123.962;2023-08-21T01:16:59;47.80;;;10.60;;
51066;SDS011;37112;45.892;-123.962;2023-08-21T01:19:14;38.30;;;10.40;;
51066;SDS011;37112;45.892;-123.962;2023-08-21T01:21:33;51.00;;;10.00;;
51066;SDS011;37112;45.892;-123.962;2023-08-21T01:23:42;61.80;;;13.20;;
51066;SDS011;37112;45.892;-123.962;2023-08-21T01:25:52;42.50;;;10.70;;
51066;SDS011;37112;45.892;-123.962;2023-08-21T01:28:02;54.50;;;11.90;;
51066;SDS011;37112;45.892;-123.962;2023-08-21T01:30:13;93.90;;;15.40;;
51066;SDS011;37112;45.892;-123.962;2023-08-21T01:32:29;52.00;;;12.10;;
51066;SDS011;37112;45.892;-123.962;2023-08-21T01:34:54;75.10;;;16.10;;
51066;SDS011;37112;45.892;-123.962;2023-08-21T01:37:06;28.00;;;8.40;;
51066;SDS011;37112;45.892;-123.962;2023-08-21T01:39:17;25.00;;;6.60;;
51066;SDS011;37112;45.892;-123.962;2023-08-21T01:41:27;45.60;;;10.40;;
51066;SDS011;37112;45.892;-123.962;2023-08-21T01:43:37;68.50;;;15.90;;
51066;SDS011;37112;45.892;-123.962;2023-08-21T01:45:46;39.90;;;9.60;;
51066;SDS011;37112;45.892;-123.962;2023-08-21T01:47:57;30.20;;;8.70;;
51066;SDS011;37112;45.892;-123.962;2023-08-21T01:50:08;60.40;;;12.60;;
51066;SDS011;37112;45.892;-123.962;2023-08-21T01:52:18;56.60;;;11.70;;
51066;SDS011;37112;45.892;-123.962;2023-08-21T01:54:27;35.40;;;8.20;;
51066;SDS011;37112;45.892;-123.962;2023-08-21T01:56:37;43.30;;;9.20;;
51066;SDS011;37112;45.892;-123.962;2023-08-21T01:58:47;44.30;;;10.70;;
51066;SDS011;37112;45.892;-123.962;2023-08-21T02:00:56;24.70;;;7.10;;
51066;SDS011;37112;45.892;-123.962;2023-08-21T02:03:06;16.90;;;5.20;;
51066;SDS011;37112;45.892;-123.962;2023-08-21T02:05:16;21.90;;;6.80;;
51066;SDS011;37112;45.892;-123.962;2023-08-21T02:07:26;30.60;;;7.50;;
51066;SDS011;37112;45.892;-123.962;2023-08-21T02:09:35;33.80;;;8.40;;
51066;SDS011;37112;45.892;-123.962;2023-08-21T02:11:47;29.50;;;7.20;;
51066;SDS011;37112;45.892;-123.962;2023-08-21T02:13:57;39.40;;;8.80;;
51066;SDS011;37112;45.892;-123.962;2023-08-21T02:16:07;76.90;;;16.10;;
51066;SDS011;37112;45.892;-123.962;2023-08-21T02:18:18;29.90;;;7.50;;
51066;SDS011;37112;45.892;-123.962;2023-08-21T02:20:28;32.70;;;8.20;;
51066;SDS011;37112;45.892;-123.962;2023-08-21T02:22:38;18.40;;;5.40;;
51066;SDS011;37112;45.892;-123.962;2023-08-21T02:24:47;18.20;;;5.30;;
51066;SDS011;37112;45.892;-123.962;2023-08-21T02:26:57;48.20;;;9.40;;
51066;SDS011;37112;45.892;-123.962;2023-08-21T02:29:07;60.60;;;11.70;;
51066;SDS011;37112;45.892;-123.962;2023-08-21T02:31:16;41.30;;;9.70;;
51066;SDS011;37112;45.892;-123.962;2023-08-21T02:33:28;32.80;;;6.50;;
51066;SDS011;37112;45.892;-123.962;2023-08-21T02:35:38;57.60;;;9.30;;
51066;SDS011;37112;45.892;-123.962;2023-08-21T02:37:47;51.90;;;11.10;;
51066;SDS011;37112;45.892;-123.962;2023-08-21T02:39:57;34.10;;;6.00;;
51066;SDS011;37112;45.892;-123.962;2023-08-21T02:42:08;29.30;;;5.50;;
51066;SDS011;37112;45.892;-123.962;2023-08-21T02:44:17;23.60;;;6.00;;
51066;SDS011;37112;45.892;-123.962;2023-08-21T02:46:27;26.70;;;6.10;;
51066;SDS011;37112;45.892;-123.962;2023-08-21T02:48:37;27.40;;;5.60;;
51066;SDS011;37112;45.892;-123.962;2023-08-21T02:50:46;20.60;;;4.90;;
51066;SDS011;37112;45.892;-123.962;2023-08-21T02:52:56;17.70;;;3.90;;
51066;SDS011;37112;45.892;-123.962;2023-08-21T02:55:06;16.10;;;3.70;;
51066;SDS011;37112;45.892;-123.962;2023-08-21T02:57:16;16.60;;;3.80;;
51066;SDS011;37112;45.892;-123.962;2023-08-21T02:59:26;14.50;;;4.20;;
51066;SDS011;37112;45.892;-123.962;2023-08-21T03:01:36;25.20;;;4.60;;
51066;SDS011;37112;45.892;-123.962;2023-08-21T03:03:45;16.30;;;4.20;;
51066;SDS011;37112;45.892;-123.962;2023-08-21T03:05:55;17.50;;;5.00;;
51066;SDS011;37112;45.892;-123.962;2023-08-21T03:08:05;16.90;;;4.60;;
51066;SDS011;37112;45.892;-123.962;2023-08-21T03:10:16;19.60;;;4.40;;
51066;SDS011;37112;45.892;-123.962;2023-08-21T03:12:26;15.30;;;3.80;;
51066;SDS011;37112;45.892;-123.962;2023-08-21T03:14:36;14.20;;;3.90;;
51066;SDS011;37112;45.892;-123.962;2023-08-21T03:16:45;15.90;;;3.60;;
51066;SDS011;37112;45.892;-123.962;2023-08-21T03:18:56;17.90;;;4.10;;
51066;SDS011;37112;45.892;-123.962;2023-08-21T03:21:07;17.70;;;4.50;;
51066;SDS011;37112;45.892;-123.962;2023-08-21T03:23:17;15.10;;;3.50;;
51066;SDS011;37112;45.892;-123.962;2023-08-21T03:25:28;15.40;;;3.30;;
51066;SDS011;37112;45.892;-123.962;2023-08-21T03:27:38;16.20;;;3.60;;
51066;SDS011;37112;45.892;-123.962;2023-08-21T03:29:50;17.20;;;3.30;;
51066;SDS011;37112;45.892;-123.962;2023-08-21T03:32:00;16.10;;;3.90;;
51066;SDS011;37112;45.892;-123.962;2023-08-21T03:34:10;16.70;;;3.60;;
51066;SDS011;37112;45.892;-123.962;2023-08-21T03:36:20;18.70;;;4.00;;
51066;SDS011;37112;45.892;-123.962;2023-08-21T03:38:38;15.70;;;2.90;;
51066;SDS011;37112;45.892;-123.962;2023-08-21T03:40:48;16.50;;;3.80;;
51066;SDS011;37112;45.892;-123.962;2023-08-21T03:42:58;15.80;;;3.80;;
51066;SDS011;37112;45.892;-123.962;2023-08-21T03:45:08;13.60;;;3.30;;
51066;SDS011;37112;45.892;-123.962;2023-08-21T03:47:18;12.60;;;3.50;;
51066;SDS011;37112;45.892;-123.962;2023-08-21T03:49:33;14.80;;;3.60;;
51066;SDS011;37112;45.892;-123.962;2023-08-21T03:51:43;12.10;;;3.70;;
51066;SDS011;37112;45.892;-123.962;2023-08-21T03:53:53;14.50;;;3.40;;
51066;SDS011;37112;45.892;-123.962;2023-08-21T03:56:03;13.90;;;3.60;;
51066;SDS011;37112;45.892;-123.962;2023-08-21T03:58:13;13.70;;;3.20;;
51066;SDS011;37112;45.892;-123.962;2023-08-21T04:00:23;14.50;;;3.40;;
51066;SDS011;37112;45.892;-123.962;2023-08-21T04:02:33;19.80;;;3.60;;
51066;SDS011;37112;45.892;-123.962;2023-08-21T04:04:43;18.50;;;3.70;;
51066;SDS011;37112;45.892;-123.962;2023-08-21T04:06:53;10.10;;;3.80;;
51066;SDS011;37112;45.892;-123.962;2023-08-21T04:09:02;12.40;;;3.70;;
51066;SDS011;37112;45.892;-123.962;2023-08-21T04:11:12;13.90;;;3.80;;
51066;SDS011;37112;45.892;-123.962;2023-08-21T04:13:23;15.00;;;4.40;;
51066;SDS011;37112;45.892;-123.962;2023-08-21T04:15:33;18.00;;;3.60;;
51066;SDS011;37112;45.892;-123.962;2023-08-21T04:17:43;12.40;;;3.90;;
51066;SDS011;37112;45.892;-123.962;2023-08-21T04:19:53;17.00;;;4.10;;
51066;SDS011;37112;45.892;-123.962;2023-08-21T04:22:03;19.30;;;4.40;;
51066;SDS011;37112;45.892;-123.962;2023-08-21T04:24:12;22.10;;;4.20;;
51066;SDS011;37112;45.892;-123.962;2023-08-21T04:26:22;16.80;;;4.50;;
51066;SDS011;37112;45.892;-123.962;2023-08-21T04:28:32;21.60;;;4.40;;
51066;SDS011;37112;45.892;-123.962;2023-08-21T04:30:43;16.60;;;4.10;;
51066;SDS011;37112;45.892;-123.962;2023-08-21T04:32:53;17.50;;;3.80;;
51066;SDS011;37112;45.892;-123.962;2023-08-21T04:35:03;15.50;;;3.80;;
51066;SDS011;37112;45.892;-123.962;2023-08-21T04:37:15;22.10;;;4.60;;
51066;SDS011;37112;45.892;-123.962;2023-08-21T04:39:25;11.20;;;3.10;;
51066;SDS011;37112;45.892;-123.962;2023-08-21T04:41:35;20.00;;;4.20;;
51066;SDS011;37112;45.892;-123.962;2023-08-21T04:43:46;11.60;;;3.40;;
51066;SDS011;37112;45.892;-123.962;2023-08-21T04:45:56;11.00;;;2.80;;
51066;SDS011;37112;45.892;-123.962;2023-08-21T04:48:07;16.70;;;2.70;;
51066;SDS011;37112;45.892;-123.962;2023-08-21T04:50:17;12.30;;;3.20;;
51066;SDS011;37112;45.892;-123.962;2023-08-21T04:52:27;11.20;;;3.40;;
51066;SDS011;37112;45.892;-123.962;2023-08-21T04:54:37;16.40;;;3.60;;
51066;SDS011;37112;45.892;-123.962;2023-08-21T04:56:50;15.70;;;3.00;;
51066;SDS011;37112;45.892;-123.962;2023-08-21T04:59:00;14.60;;;3.20;;
51066;SDS011;37112;45.892;-123.962;2023-08-21T05:01:10;20.90;;;4.00;;
51066;SDS011;37112;45.892;-123.962;2023-08-21T05:03:22;16.90;;;4.10;;
51066;SDS011;37112;45.892;-123.962;2023-08-21T05:05:32;11.50;;;3.50;;
51066;SDS011;37112;45.892;-123.962;2023-08-21T05:07:42;17.30;;;3.70;;
51066;SDS011;37112;45.892;-123.962;2023-08-21T05:09:52;14.80;;;3.80;;
51066;SDS011;37112;45.892;-123.962;2023-08-21T05:12:03;22.10;;;4.70;;
51066;SDS011;37112;45.892;-123.962;2023-08-21T05:14:14;17.60;;;4.70;;
51066;SDS011;37112;45.892;-123.962;2023-08-21T05:16:25;20.80;;;5.40;;
51066;SDS011;37112;45.892;-123.962;2023-08-21T05:18:34;12.20;;;3.50;;
51066;SDS011;37112;45.892;-123.962;2023-08-21T05:20:44;21.80;;;4.10;;
51066;SDS011;37112;45.892;-123.962;2023-08-21T05:22:53;15.70;;;3.30;;
51066;SDS011;37112;45.892;-123.962;2023-08-21T05:25:03;17.40;;;3.90;;
51066;SDS011;37112;45.892;-123.962;2023-08-21T05:27:15;10.30;;;2.30;;
51066;SDS011;37112;45.892;-123.962;2023-08-21T05:29:24;20.40;;;4.20;;
51066;SDS011;37112;45.892;-123.962;2023-08-21T05:31:35;15.90;;;3.50;;
51066;SDS011;37112;45.892;-123.962;2023-08-21T05:33:45;18.90;;;3.60;;
51066;SDS011;37112;45.892;-123.962;2023-08-21T05:35:55;15.40;;;3.70;;
51066;SDS011;37112;45.892;-123.962;2023-08-21T05:38:05;19.50;;;3.30;;
51066;SDS011;37112;45.892;-123.962;2023-08-21T05:40:15;17.50;;;4.20;;
51066;SDS011;37112;45.892;-123.962;2023-08-21T05:42:24;15.20;;;2.80;;
51066;SDS011;37112;45.892;-123.962;2023-08-21T05:44:34;14.60;;;3.60;;
51066;SDS011;37112;45.892;-123.962;2023-08-21T05:46:45;20.30;;;3.10;;
51066;SDS011;37112;45.892;-123.962;2023-08-21T05:48:55;19.50;;;6.90;;
51066;SDS011;37112;45.892;-123.962;2023-08-21T05:51:06;12.40;;;3.00;;
51066;SDS011;37112;45.892;-123.962;2023-08-21T05:53:16;16.80;;;3.10;;
51066;SDS011;37112;45.892;-123.962;2023-08-21T05:55:26;17.80;;;3.10;;
51066;SDS011;37112;45.892;-123.962;2023-08-21T05:57:35;15.90;;;4.00;;
51066;SDS011;37112;45.892;-123.962;2023-08-21T05:59:45;12.00;;;3.30;;
51066;SDS011;37112;45.892;-123.962;2023-08-21T06:01:55;14.10;;;2.90;;
51066;SDS011;37112;45.892;-123.962;2023-08-21T06:04:05;17.90;;;3.10;;
51066;SDS011;37112;45.892;-123.962;2023-08-21T06:06:19;13.90;;;2.50;;
51066;SDS011;37112;45.892;-123.962;2023-08-21T06:08:28;16.50;;;3.30;;
51066;SDS011;37112;45.892;-123.962;2023-08-21T06:10:38;15.30;;;2.20;;
51066;SDS011;37112;45.892;-123.962;2023-08-21T06:12:48;16.90;;;3.40;;
51066;SDS011;37112;45.892;-123.962;2023-08-21T06:14:57;17.30;;;3.00;;
51066;SDS011;37112;45.892;-123.962;2023-08-21T06:17:09;14.60;;;4.10;;
51066;SDS011;37112;45.892;-123.962;2023-08-21T06:19:19;18.30;;;4.00;;
51066;SDS011;37112;45.892;-123.962;2023-08-21T06:21:28;13.60;;;3.80;;
51066;SDS011;37112;45.892;-123.962;2023-08-21T06:23:38;10.50;;;1.60;;
51066;SDS011;37112;45.892;-123.962;2023-08-21T06:25:48;15.40;;;2.60;;
51066;SDS011;37112;45.892;-123.962;2023-08-21T06:27:59;15.00;;;2.70;;
51066;SDS011;37112;45.892;-123.962;2023-08-21T06:30:10;11.10;;;2.40;;
51066;SDS011;37112;45.892;-123.962;2023-08-21T06:32:23;11.70;;;2.20;;
51066;SDS011;37112;45.892;-123.962;2023-08-21T06:34:33;17.50;;;3.50;;
51066;SDS011;37112;45.892;-123.962;2023-08-21T06:36:43;9.90;;;1.80;;
51066;SDS011;37112;45.892;-123.962;2023-08-21T06:38:54;16.30;;;3.50;;
51066;SDS011;37112;45.892;-123.962;2023-08-21T06:41:04;16.20;;;2.00;;
51066;SDS011;37112;45.892;-123.962;2023-08-21T06:43:17;11.60;;;2.50;;
51066;SDS011;37112;45.892;-123.962;2023-08-21T06:45:28;12.10;;;2.80;;
51066;SDS011;37112;45.892;-123.962;2023-08-21T06:47:38;9.00;;;3.50;;
51066;SDS011;37112;45.892;-123.962;2023-08-21T06:49:48;10.10;;;1.70;;
51066;SDS011;37112;45.892;-123.962;2023-08-21T06:51:58;12.90;;;2.40;;
51066;SDS011;37112;45.892;-123.962;2023-08-21T06:54:08;9.40;;;1.90;;
51066;SDS011;37112;45.892;-123.962;2023-08-21T06:56:18;14.00;;;2.80;;
51066;SDS011;37112;45.892;-123.962;2023-08-21T06:58:27;17.20;;;3.00;;
51066;SDS011;37112;45.892;-123.962;2023-08-21T07:00:37;5.80;;;1.30;;
51066;SDS011;37112;45.892;-123.962;2023-08-21T07:02:47;14.90;;;2.20;;
51066;SDS011;37112;45.892;-123.962;2023-08-21T07:04:56;21.20;;;2.80;;
51066;SDS011;37112;45.892;-123.962;2023-08-21T07:07:06;17.90;;;3.20;;
51066;SDS011;37112;45.892;-123.962;2023-08-21T07:09:16;14.20;;;2.60;;
51066;SDS011;37112;45.892;-123.962;2023-08-21T07:11:26;14.70;;;2.80;;
51066;SDS011;37112;45.892;-123.962;2023-08-21T07:13:35;11.20;;;1.90;;
51066;SDS011;37112;45.892;-123.962;2023-08-21T07:15:45;17.20;;;3.20;;
51066;SDS011;37112;45.892;-123.962;2023-08-21T07:17:55;12.60;;;1.90;;
51066;SDS011;37112;45.892;-123.962;2023-08-21T07:20:05;20.10;;;2.20;;
51066;SDS011;37112;45.892;-123.962;2023-08-21T07:22:16;9.20;;;2.30;;
51066;SDS011;37112;45.892;-123.962;2023-08-21T07:24:26;15.70;;;2.40;;
51066;SDS011;37112;45.892;-123.962;2023-08-21T07:26:35;11.70;;;2.00;;
51066;SDS011;37112;45.892;-123.962;2023-08-21T07:28:45;13.30;;;3.10;;
51066;SDS011;37112;45.892;-123.962;2023-08-21T07:30:58;13.50;;;2.30;;
51066;SDS011;37112;45.892;-123.962;2023-08-21T07:33:08;13.90;;;2.60;;
51066;SDS011;37112;45.892;-123.962;2023-08-21T07:35:17;13.40;;;2.80;;
51066;SDS011;37112;45.892;-123.962;2023-08-21T07:37:27;8.30;;;2.70;;
51066;SDS011;37112;45.892;-123.962;2023-08-21T07:39:37;17.50;;;3.30;;
51066;SDS011;37112;45.892;-123.962;2023-08-21T07:41:46;14.20;;;2.40;;
51066;SDS011;37112;45.892;-123.962;2023-08-21T07:43:58;15.60;;;3.60;;
51066;SDS011;37112;45.892;-123.962;2023-08-21T07:46:09;12.40;;;2.70;;
51066;SDS011;37112;45.892;-123.962;2023-08-21T07:48:21;11.10;;;2.70;;
51066;SDS011;37112;45.892;-123.962;2023-08-21T07:50:31;14.20;;;2.30;;
51066;SDS011;37112;45.892;-123.962;2023-08-21T07:52:41;16.20;;;2.40;;
51066;SDS011;37112;45.892;-123.962;2023-08-21T07:54:52;15.00;;;3.70;;
51066;SDS011;37112;45.892;-123.962;2023-08-21T07:57:02;13.60;;;3.10;;
51066;SDS011;37112;45.892;-123.962;2023-08-21T07:59:12;19.10;;;3.20;;
51066;SDS011;37112;45.892;-123.962;2023-08-21T08:01:22;21.10;;;4.50;;
51066;SDS011;37112;45.892;-123.962;2023-08-21T08:03:31;16.60;;;4.10;;
51066;SDS011;37112;45.892;-123.962;2023-08-21T08:05:41;8.80;;;2.50;;
51066;SDS011;37112;45.892;-123.962;2023-08-21T08:08:00;12.30;;;2.10;;
51066;SDS011;37112;45.892;-123.962;2023-08-21T08:10:09;13.20;;;2.80;;
51066;SDS011;37112;45.892;-123.962;2023-08-21T08:12:19;15.90;;;2.30;;
51066;SDS011;37112;45.892;-123.962;2023-08-21T08:14:28;14.60;;;2.40;;
51066;SDS011;37112;45.892;-123.962;2023-08-21T08:16:38;15.40;;;2.10;;
51066;SDS011;37112;45.892;-123.962;2023-08-21T08:18:47;22.00;;;3.90;;
51066;SDS011;37112;45.892;-123.962;2023-08-21T08:20:57;18.80;;;2.80;;
51066;SDS011;37112;45.892;-123.962;2023-08-21T08:23:06;10.90;;;2.30;;
51066;SDS011;37112;45.892;-123.962;2023-08-21T08:25:16;15.00;;;2.40;;
51066;SDS011;37112;45.892;-123.962;2023-08-21T08:27:26;18.40;;;3.20;;
51066;SDS011;37112;45.892;-123.962;2023-08-21T08:29:35;14.50;;;2.60;;
51066;SDS011;37112;45.892;-123.962;2023-08-21T08:31:45;13.90;;;2.20;;
51066;SDS011;37112;45.892;-123.962;2023-08-21T08:33:55;16.70;;;2.90;;
51066;SDS011;37112;45.892;-123.962;2023-08-21T08:36:05;15.00;;;3.80;;
51066;SDS011;37112;45.892;-123.962;2023-08-21T08:38:15;18.10;;;2.70;;
51066;SDS011;37112;45.892;-123.962;2023-08-21T08:40:26;11.70;;;2.20;;
51066;SDS011;37112;45.892;-123.962;2023-08-21T08:42:35;18.60;;;2.40;;
51066;SDS011;37112;45.892;-123.962;2023-08-21T08:44:45;20.50;;;3.00;;
51066;SDS011;37112;45.892;-123.962;2023-08-21T08:46:56;14.90;;;2.20;;
51066;SDS011;37112;45.892;-123.962;2023-08-21T08:49:08;22.60;;;4.50;;
51066;SDS011;37112;45.892;-123.962;2023-08-21T08:51:18;13.70;;;2.80;;
51066;SDS011;37112;45.892;-123.962;2023-08-21T08:53:29;15.30;;;2.60;;
51066;SDS011;37112;45.892;-123.962;2023-08-21T08:55:38;11.70;;;2.70;;
51066;SDS011;37112;45.892;-123.962;2023-08-21T08:57:49;15.60;;;2.60;;
51066;SDS011;37112;45.892;-123.962;2023-08-21T09:00:00;14.90;;;2.20;;
51066;SDS011;37112;45.892;-123.962;2023-08-21T09:02:10;18.20;;;3.60;;
51066;SDS011;37112;45.892;-123.962;2023-08-21T09:04:20;14.60;;;2.00;;
51066;SDS011;37112;45.892;-123.962;2023-08-21T09:06:30;19.60;;;3.90;;
51066;SDS011;37112;45.892;-123.962;2023-08-21T09:08:42;15.60;;;2.40;;
51066;SDS011;37112;45.892;-123.962;2023-08-21T09:11:02;24.70;;;3.70;;
51066;SDS011;37112;45.892;-123.962;2023-08-21T09:13:13;14.10;;;2.60;;
51066;SDS011;37112;45.892;-123.962;2023-08-21T09:15:23;23.20;;;2.30;;
51066;SDS011;37112;45.892;-123.962;2023-08-21T09:17:53;15.40;;;3.30;;
51066;SDS011;37112;45.892;-123.962;2023-08-21T09:20:07;15.00;;;3.20;;
51066;SDS011;37112;45.892;-123.962;2023-08-21T09:22:18;18.40;;;2.60;;
51066;SDS011;37112;45.892;-123.962;2023-08-21T09:24:28;19.40;;;2.90;;
51066;SDS011;37112;45.892;-123.962;2023-08-21T09:26:38;19.00;;;2.70;;
51066;SDS011;37112;45.892;-123.962;2023-08-21T09:28:49;27.60;;;4.40;;
51066;SDS011;37112;45.892;-123.962;2023-08-21T09:30:59;23.50;;;3.60;;
51066;SDS011;37112;45.892;-123.962;2023-08-21T09:33:09;19.40;;;3.00;;
51066;SDS011;37112;45.892;-123.962;2023-08-21T09:35:19;15.90;;;2.60;;
51066;SDS011;37112;45.892;-123.962;2023-08-21T09:37:29;19.30;;;3.20;;
51066;SDS011;37112;45.892;-123.962;2023-08-21T09:39:39;21.90;;;4.00;;
51066;SDS011;37112;45.892;-123.962;2023-08-21T09:41:56;19.50;;;2.90;;
51066;SDS011;37112;45.892;-123.962;2023-08-21T09:44:06;19.50;;;2.80;;
51066;SDS011;37112;45.892;-123.962;2023-08-21T09:46:16;15.70;;;3.00;;
51066;SDS011;37112;45.892;-123.962;2023-08-21T09:48:31;20.80;;;4.30;;
51066;SDS011;37112;45.892;-123.962;2023-08-21T09:50:41;17.60;;;3.20;;
51066;SDS011;37112;45.892;-123.962;2023-08-21T09:52:52;19.00;;;2.70;;
51066;SDS011;37112;45.892;-123.962;2023-08-21T09:55:03;19.00;;;2.60;;
51066;SDS011;37112;45.892;-123.962;2023-08-21T09:57:15;16.70;;;2.70;;
51066;SDS011;37112;45.892;-123.962;2023-08-21T09:59:25;18.30;;;3.00;;
51066;SDS011;37112;45.892;-123.962;2023-08-21T10:01:35;13.00;;;3.30;;
51066;SDS011;37112;45.892;-123.962;2023-08-21T10:03:45;17.00;;;3.10;;
51066;SDS011;37112;45.892;-123.962;2023-08-21T10:05:57;16.00;;;4.40;;
51066;SDS011;37112;45.892;-123.962;2023-08-21T10:08:07;12.90;;;2.70;;
51066;SDS011;37112;45.892;-123.962;2023-08-21T10:10:19;11.10;;;2.10;;
51066;SDS011;37112;45.892;-123.962;2023-08-21T10:12:29;15.40;;;5.20;;
51066;SDS011;37112;45.892;-123.962;2023-08-21T10:14:39;19.60;;;3.50;;
51066;SDS011;37112;45.892;-123.962;2023-08-21T10:16:49;12.90;;;2.40;;
51066;SDS011;37112;45.892;-123.962;2023-08-21T10:19:03;14.90;;;2.70;;
51066;SDS011;37112;45.892;-123.962;2023-08-21T10:21:15;21.30;;;3.00;;
51066;SDS011;37112;45.892;-123.962;2023-08-21T10:23:26;10.90;;;2.00;;
51066;SDS011;37112;45.892;-123.962;2023-08-21T10:25:40;13.80;;;2.60;;
51066;SDS011;37112;45.892;-123.962;2023-08-21T10:27:51;15.80;;;3.20;;
51066;SDS011;37112;45.892;-123.962;2023-08-21T10:30:02;11.10;;;2.10;;
51066;SDS011;37112;45.892;-123.962;2023-08-21T10:32:23;14.80;;;2.80;;
51066;SDS011;37112;45.892;-123.962;2023-08-21T10:34:33;10.50;;;1.70;;
51066;SDS011;37112;45.892;-123.962;2023-08-21T10:39:19;12.90;;;3.00;;
51066;SDS011;37112;45.892;-123.962;2023-08-21T10:41:29;14.80;;;2.60;;
51066;SDS011;37112;45.892;-123.962;2023-08-21T10:43:44;13.90;;;2.60;;
51066;SDS011;37112;45.892;-123.962;2023-08-21T10:45:57;13.80;;;3.20;;
51066;SDS011;37112;45.892;-123.962;2023-08-21T10:48:07;16.20;;;3.00;;
51066;SDS011;37112;45.892;-123.962;2023-08-21T10:50:16;12.60;;;2.90;;
51066;SDS011;37112;45.892;-123.962;2023-08-21T10:52:27;15.30;;;2.60;;
51066;SDS011;37112;45.892;-123.962;2023-08-21T10:56:53;12.40;;;3.30;;
51066;SDS011;37112;45.892;-123.962;2023-08-21T10:59:03;10.00;;;2.30;;
51066;SDS011;37112;45.892;-123.962;2023-08-21T11:01:13;11.20;;;2.40;;
51066;SDS011;37112;45.892;-123.962;2023-08-21T11:03:23;15.00;;;3.30;;
51066;SDS011;37112;45.892;-123.962;2023-08-21T11:05:33;16.30;;;2.60;;
51066;SDS011;37112;45.892;-123.962;2023-08-21T11:07:43;16.20;;;2.50;;
51066;SDS011;37112;45.892;-123.962;2023-08-21T11:09:54;18.00;;;2.90;;
51066;SDS011;37112;45.892;-123.962;2023-08-21T11:12:09;12.90;;;2.30;;
51066;SDS011;37112;45.892;-123.962;2023-08-21T11:14:26;17.30;;;3.30;;
51066;SDS011;37112;45.892;-123.962;2023-08-21T11:16:36;15.20;;;2.80;;
51066;SDS011;37112;45.892;-123.962;2023-08-21T11:18:46;12.00;;;3.70;;
51066;SDS011;37112;45.892;-123.962;2023-08-21T11:21:02;17.60;;;2.60;;
51066;SDS011;37112;45.892;-123.962;2023-08-21T11:23:13;16.50;;;2.60;;
51066;SDS011;37112;45.892;-123.962;2023-08-21T11:25:22;16.70;;;2.10;;
51066;SDS011;37112;45.892;-123.962;2023-08-21T11:27:33;13.20;;;3.00;;
51066;SDS011;37112;45.892;-123.962;2023-08-21T11:29:44;14.70;;;2.90;;
51066;SDS011;37112;45.892;-123.962;2023-08-21T11:31:54;16.50;;;2.20;;
51066;SDS011;37112;45.892;-123.962;2023-08-21T11:34:04;20.30;;;2.70;;
51066;SDS011;37112;45.892;-123.962;2023-08-21T11:36:28;14.70;;;3.40;;
51066;SDS011;37112;45.892;-123.962;2023-08-21T11:38:38;17.30;;;3.10;;
51066;SDS011;37112;45.892;-123.962;2023-08-21T11:40:54;13.50;;;2.40;;
51066;SDS011;37112;45.892;-123.962;2023-08-21T11:43:06;16.00;;;2.00;;
51066;SDS011;37112;45.892;-123.962;2023-08-21T11:47:31;19.40;;;2.70;;
51066;SDS011;37112;45.892;-123.962;2023-08-21T11:49:42;9.40;;;2.70;;
51066;SDS011;37112;45.892;-123.962;2023-08-21T11:51:54;13.70;;;2.50;;
51066;SDS011;37112;45.892;-123.962;2023-08-21T11:54:05;15.40;;;2.60;;
51066;SDS011;37112;45.892;-123.962;2023-08-21T11:56:16;14.20;;;2.60;;
51066;SDS011;37112;45.892;-123.962;2023-08-21T11:58:28;19.20;;;3.10;;
51066;SDS011;37112;45.892;-123.962;2023-08-21T12:00:39;16.80;;;2.50;;
51066;SDS011;37112;45.892;-123.962;2023-08-21T12:02:55;16.80;;;2.90;;
51066;SDS011;37112;45.892;-123.962;2023-08-21T12:05:06;14.50;;;2.90;;
51066;SDS011;37112;45.892;-123.962;2023-08-21T12:07:21;10.00;;;2.20;;
51066;SDS011;37112;45.892;-123.962;2023-08-21T12:09:31;18.00;;;3.70;;
51066;SDS011;37112;45.892;-123.962;2023-08-21T12:11:41;15.50;;;3.20;;
51066;SDS011;37112;45.892;-123.962;2023-08-21T12:13:52;13.40;;;2.90;;
51066;SDS011;37112;45.892;-123.962;2023-08-21T12:16:01;13.60;;;2.80;;
51066;SDS011;37112;45.892;-123.962;2023-08-21T12:18:11;15.80;;;2.90;;
51066;SDS011;37112;45.892;-123.962;2023-08-21T12:20:21;13.00;;;3.00;;
51066;SDS011;37112;45.892;-123.962;2023-08-21T12:22:31;10.50;;;2.90;;
51066;SDS011;37112;45.892;-123.962;2023-08-21T12:24:40;24.40;;;4.90;;
51066;SDS011;37112;45.892;-123.962;2023-08-21T12:26:50;15.50;;;3.80;;
51066;SDS011;37112;45.892;-123.962;2023-08-21T12:29:00;15.60;;;3.00;;